createdAt,value
2022-11-10T00:01:37.439Z,2.35
2022-11-10T00:04:22.973Z,2.63
2022-11-10T00:07:08.195Z,2.22
2022-11-10T00:09:53.872Z,1.92
2022-11-10T00:12:39.194Z,2.23
2022-11-10T00:15:43.210Z,2.33
2022-11-10T00:18:28.378Z,2.60
2022-11-10T00:21:15.406Z,2.10
2022-11-10T00:24:00.476Z,2.40
2022-11-10T00:26:45.871Z,2.10
2022-11-10T00:29:31.279Z,2.58
2022-11-10T00:32:16.753Z,2.30
2022-11-10T00:35:01.899Z,2.67
2022-11-10T00:37:49.539Z,2.80
2022-11-10T00:40:34.496Z,2.67
2022-11-10T00:43:25.291Z,2.70
2022-11-10T00:46:11.811Z,2.90
2022-11-10T00:48:57.118Z,2.95
2022-11-10T00:51:42.484Z,2.65
2022-11-10T00:54:27.738Z,3.38
2022-11-10T00:57:13.082Z,2.70
2022-11-10T00:59:58.452Z,3.15
2022-11-10T01:02:43.815Z,3.10
2022-11-10T01:05:30.481Z,3.22
2022-11-10T01:08:15.566Z,3.03
2022-11-10T01:11:16.210Z,2.50
2022-11-10T01:14:01.489Z,2.40
2022-11-10T01:16:46.729Z,2.90
2022-11-10T01:19:32.120Z,2.92
2022-11-10T01:22:17.447Z,2.50
2022-11-10T01:25:02.996Z,3.17
2022-11-10T01:27:48.389Z,3.03
2022-11-10T01:30:33.696Z,2.47
2022-11-10T01:33:22.156Z,2.88
2022-11-10T01:36:09.333Z,3.05
2022-11-10T01:38:54.720Z,3.05
2022-11-10T01:41:40.001Z,3.15
2022-11-10T01:44:26.190Z,2.85
2022-11-10T01:47:11.434Z,2.92
2022-11-10T01:49:57.043Z,2.65
2022-11-10T01:52:46.928Z,2.70
2022-11-10T01:55:34.411Z,2.88
2022-11-10T01:58:25.369Z,2.88
2022-11-10T02:01:10.882Z,2.75
2022-11-10T02:03:59.983Z,2.58
2022-11-10T02:06:46.847Z,2.63
2022-11-10T02:09:32.169Z,2.50
2022-11-10T02:12:36.937Z,3.00
2022-11-10T02:15:22.814Z,2.47
2022-11-10T02:18:07.990Z,2.70
2022-11-10T02:20:53.127Z,2.40
2022-11-10T02:23:38.279Z,2.60
2022-11-10T02:26:27.701Z,2.95
2022-11-10T02:29:13.370Z,2.78
2022-11-10T02:31:58.645Z,2.75
2022-11-10T02:34:44.167Z,2.70
2022-11-10T02:37:29.101Z,2.55
2022-11-10T02:40:14.462Z,2.63
2022-11-10T02:42:59.661Z,2.88
2022-11-10T02:45:45.521Z,2.40
2022-11-10T02:48:30.758Z,2.70
2022-11-10T02:51:16.179Z,2.70
2022-11-10T02:54:01.537Z,2.63
2022-11-10T02:56:47.106Z,2.67
2022-11-10T02:59:32.192Z,3.15
2022-11-10T03:02:17.412Z,2.30
2022-11-10T03:05:02.577Z,3.30
2022-11-10T03:07:59.401Z,3.53
2022-11-10T03:10:44.807Z,2.97
2022-11-10T03:13:45.217Z,3.35
2022-11-10T03:16:36.228Z,3.40
2022-11-10T03:19:21.449Z,3.70
2022-11-10T03:22:06.768Z,3.25
2022-11-10T03:24:51.964Z,3.50
2022-11-10T03:27:37.452Z,3.50
2022-11-10T03:30:22.670Z,3.88
2022-11-10T03:33:08.495Z,3.20
2022-11-10T03:35:53.518Z,4.07
2022-11-10T03:38:38.854Z,3.08
2022-11-10T03:41:24.275Z,4.13
2022-11-10T03:44:09.359Z,4.38
2022-11-10T03:46:54.625Z,3.22
2022-11-10T03:49:39.673Z,3.55
2022-11-10T03:52:25.069Z,3.95
2022-11-10T03:55:17.200Z,4.30
2022-11-10T03:58:03.338Z,4.18
2022-11-10T04:00:48.769Z,4.65
2022-11-10T04:03:34.460Z,4.22
2022-11-10T04:06:38.139Z,4.40
2022-11-10T04:09:23.344Z,3.78
2022-11-10T04:12:27.275Z,4.68
2022-11-10T04:15:31.690Z,4.53
2022-11-10T04:18:26.001Z,4.63
2022-11-10T04:21:12.195Z,4.78
2022-11-10T04:23:57.602Z,5.05
2022-11-10T04:26:43.728Z,5.10
2022-11-10T04:29:29.002Z,4.40
2022-11-10T04:32:14.239Z,5.07
2022-11-10T04:34:59.500Z,6.00
2022-11-10T04:37:46.620Z,5.95
2022-11-10T04:40:31.620Z,6.05
2022-11-10T04:43:16.895Z,6.32
2022-11-10T04:46:03.585Z,5.85
2022-11-10T04:48:49.670Z,6.13
2022-11-10T04:51:37.730Z,6.70
2022-11-10T04:54:23.343Z,5.60
2022-11-10T04:57:08.866Z,6.55
2022-11-10T04:59:54.184Z,6.32
2022-11-10T05:02:39.981Z,6.95
2022-11-10T05:05:25.352Z,6.38
2022-11-10T05:08:10.863Z,6.97
2022-11-10T05:10:55.858Z,7.85
2022-11-10T05:13:41.704Z,8.27
2022-11-10T05:16:27.098Z,8.45
2022-11-10T05:19:12.406Z,7.60
2022-11-10T05:21:57.741Z,9.05
2022-11-10T05:24:42.908Z,9.15
2022-11-10T05:27:30.131Z,8.60
2022-11-10T05:30:15.744Z,8.88
2022-11-10T05:33:01.227Z,9.43
2022-11-10T05:35:49.897Z,9.65
2022-11-10T05:38:40.229Z,10.18
2022-11-10T05:41:27.340Z,9.38
2022-11-10T05:44:12.567Z,9.45
2022-11-10T05:46:57.719Z,8.52
2022-11-10T05:49:42.935Z,8.48
2022-11-10T05:52:28.426Z,9.48
2022-11-10T05:55:14.442Z,9.55
2022-11-10T05:57:59.552Z,9.30
2022-11-10T06:00:44.866Z,10.18
2022-11-10T06:03:30.269Z,10.70
2022-11-10T06:06:15.699Z,11.38
2022-11-10T06:09:00.798Z,11.38
2022-11-10T06:11:46.069Z,11.38
2022-11-10T06:14:31.403Z,11.65
2022-11-10T06:17:16.862Z,11.10
2022-11-10T06:20:01.863Z,10.82
2022-11-10T06:23:07.451Z,11.38
2022-11-10T06:25:52.589Z,10.50
2022-11-10T06:28:37.961Z,11.30
2022-11-10T06:31:23.437Z,15.10
2022-11-10T06:34:08.883Z,11.07
2022-11-10T06:36:54.131Z,11.68
2022-11-10T06:39:39.344Z,10.98
2022-11-10T06:42:24.766Z,10.70
2022-11-10T06:45:10.133Z,10.60
2022-11-10T06:48:11.240Z,9.68
2022-11-10T06:51:00.390Z,10.05
2022-11-10T06:53:45.418Z,10.20
2022-11-10T06:56:31.968Z,9.32
2022-11-10T06:59:16.942Z,9.85
2022-11-10T07:02:02.404Z,10.68
2022-11-10T07:04:47.413Z,9.50
2022-11-10T07:07:32.702Z,8.95
2022-11-10T07:10:18.371Z,8.85
2022-11-10T07:13:04.439Z,9.13
2022-11-10T07:15:49.729Z,9.02
2022-11-10T07:18:35.993Z,9.23
2022-11-10T07:21:23.368Z,9.30
2022-11-10T07:24:09.097Z,8.02
2022-11-10T07:26:54.570Z,8.07
2022-11-10T07:29:39.882Z,8.52
2022-11-10T07:32:25.130Z,8.23
2022-11-10T07:35:10.372Z,8.52
2022-11-10T07:37:56.893Z,8.40
2022-11-10T07:40:42.055Z,8.38
2022-11-10T07:43:27.317Z,9.02
2022-11-10T07:46:12.562Z,8.93
2022-11-10T07:48:57.740Z,8.30
2022-11-10T07:51:43.318Z,8.82
2022-11-10T07:54:28.356Z,8.82
2022-11-10T07:57:13.752Z,9.00
2022-11-10T07:59:59.386Z,9.27
2022-11-10T08:02:44.443Z,10.07
2022-11-10T08:05:29.771Z,10.20
2022-11-10T08:08:15.074Z,9.50
2022-11-10T08:11:00.242Z,9.55
2022-11-10T08:13:45.461Z,9.90
2022-11-10T08:16:31.269Z,9.80
2022-11-10T08:19:16.444Z,9.15
2022-11-10T08:22:01.621Z,9.85
2022-11-10T08:24:47.215Z,9.52
2022-11-10T08:27:32.316Z,9.60
2022-11-10T08:30:17.809Z,9.95
2022-11-10T08:33:05.014Z,10.52
2022-11-10T08:35:51.835Z,10.05
2022-11-10T08:38:36.812Z,9.48
2022-11-10T08:41:22.038Z,10.13
2022-11-10T08:44:10.826Z,10.30
2022-11-10T08:46:56.703Z,10.60
2022-11-10T08:49:42.036Z,10.80
2022-11-10T08:52:27.636Z,10.10
2022-11-10T08:55:12.739Z,10.35
2022-11-10T08:58:02.822Z,10.70
2022-11-10T09:00:48.443Z,11.35
2022-11-10T09:03:33.825Z,10.75
2022-11-10T09:06:19.106Z,9.77
2022-11-10T09:09:04.551Z,10.65
2022-11-10T09:11:49.795Z,11.23
2022-11-10T09:14:35.078Z,10.60
2022-11-10T09:17:20.497Z,11.40
2022-11-10T09:20:07.328Z,11.43
2022-11-10T09:22:52.665Z,10.30
2022-11-10T09:25:38.711Z,10.18
2022-11-10T09:28:24.188Z,10.40
2022-11-10T09:31:09.440Z,11.57
2022-11-10T09:33:54.709Z,11.50
2022-11-10T09:36:40.422Z,10.95
2022-11-10T09:39:25.517Z,10.52
2022-11-10T09:42:36.696Z,10.98
2022-11-10T09:45:38.739Z,10.82
2022-11-10T09:48:30.904Z,11.40
2022-11-10T09:51:26.258Z,11.02
2022-11-10T09:54:23.605Z,10.95
2022-11-10T09:59:57.615Z,11.80
2022-11-10T10:02:49.064Z,10.88
2022-11-10T10:05:40.567Z,10.13
2022-11-10T10:09:03.113Z,9.85
2022-11-10T10:11:54.223Z,9.73
2022-11-10T10:14:50.917Z,9.98
2022-11-10T10:18:03.993Z,9.47
2022-11-10T10:21:17.321Z,11.52
2022-11-10T10:24:10.471Z,9.85
2022-11-10T10:27:01.233Z,9.25
2022-11-10T10:29:49.336Z,9.52
2022-11-10T10:32:34.836Z,9.48
2022-11-10T10:35:20.055Z,9.35
2022-11-10T10:38:13.020Z,8.88
2022-11-10T10:41:10.001Z,9.30
2022-11-10T10:45:05.244Z,9.25
2022-11-10T10:47:53.061Z,8.50
2022-11-10T10:50:43.177Z,7.97
2022-11-10T10:53:28.646Z,8.57
2022-11-10T10:56:21.383Z,11.95
2022-11-10T10:59:20.831Z,8.63
2022-11-10T11:02:31.952Z,8.43
2022-11-10T11:05:19.700Z,8.75
2022-11-10T11:08:05.520Z,7.63
2022-11-10T11:10:50.858Z,8.33
2022-11-10T11:13:36.715Z,8.35
2022-11-10T11:16:22.159Z,8.23
2022-11-10T11:19:09.080Z,6.80
2022-11-10T11:22:28.451Z,8.30
2022-11-10T11:25:27.317Z,8.15
2022-11-10T11:28:34.119Z,8.45
2022-11-10T11:31:27.728Z,7.07
2022-11-10T11:34:22.106Z,7.03
2022-11-10T11:37:14.095Z,7.13
2022-11-10T11:40:16.833Z,6.78
2022-11-10T11:43:36.188Z,7.13
2022-11-10T11:46:33.765Z,7.15
2022-11-10T11:49:40.344Z,6.60
2022-11-10T11:52:57.958Z,7.38
2022-11-10T11:55:55.362Z,7.18
2022-11-10T12:01:39.582Z,6.40
2022-11-10T12:04:49.587Z,6.38
2022-11-10T12:07:52.945Z,7.75
2022-11-10T12:10:47.046Z,6.82
2022-11-10T12:13:36.709Z,7.00
2022-11-10T12:16:31.302Z,5.95
2022-11-10T12:19:39.110Z,6.22
2022-11-10T12:22:38.686Z,6.40
2022-11-10T12:25:47.003Z,6.30
2022-11-10T12:28:37.857Z,6.60
2022-11-10T12:31:24.354Z,6.45
2022-11-10T12:34:22.444Z,6.18
2022-11-10T12:37:17.467Z,5.97
2022-11-10T12:40:19.395Z,6.32
2022-11-10T12:43:20.755Z,6.20
2022-11-10T12:46:11.018Z,5.50
2022-11-10T12:49:19.446Z,5.18
2022-11-10T12:52:28.703Z,6.13
2022-11-10T12:55:15.026Z,5.88
2022-11-10T12:58:01.449Z,5.13
2022-11-10T13:01:01.196Z,5.90
2022-11-10T13:04:01.140Z,5.45
2022-11-10T13:06:52.893Z,5.40
2022-11-10T13:09:42.495Z,5.43
2022-11-10T13:12:27.997Z,5.70
2022-11-10T13:15:35.231Z,5.95
2022-11-10T13:18:30.304Z,5.28
2022-11-10T13:21:15.290Z,4.78
2022-11-10T13:24:02.465Z,5.60
2022-11-10T13:26:59.925Z,5.30
2022-11-10T13:29:48.118Z,4.38
2022-11-10T13:32:34.249Z,4.70
2022-11-10T13:35:28.604Z,4.50
2022-11-10T13:38:32.376Z,4.75
2022-11-10T13:41:17.393Z,4.55
2022-11-10T13:44:03.064Z,4.28
2022-11-10T13:46:54.355Z,4.35
2022-11-10T13:50:00.155Z,4.28
2022-11-10T13:53:13.778Z,4.18
2022-11-10T13:56:04.718Z,4.72
2022-11-10T13:58:50.083Z,4.57
2022-11-10T14:01:35.117Z,4.70
2022-11-10T14:04:39.560Z,4.22
2022-11-10T14:07:27.694Z,4.70
2022-11-10T14:10:18.438Z,3.97
2022-11-10T14:13:24.632Z,4.50
2022-11-10T14:16:17.616Z,4.25
2022-11-10T14:19:16.050Z,4.60
2022-11-10T14:22:24.703Z,4.25
2022-11-10T14:25:24.775Z,4.38
2022-11-10T14:28:37.745Z,4.03
2022-11-10T14:31:25.957Z,4.18
2022-11-10T14:34:18.499Z,5.55
2022-11-10T14:37:04.681Z,4.35
2022-11-10T14:39:55.621Z,3.77
2022-11-10T14:42:40.739Z,4.07
2022-11-10T14:45:28.184Z,3.70
2022-11-10T14:48:20.737Z,4.03
2022-11-10T14:51:19.039Z,3.85
2022-11-10T14:54:04.152Z,3.17
2022-11-10T14:56:49.602Z,3.38
2022-11-10T14:59:34.714Z,3.47
2022-11-10T15:02:20.171Z,3.90
2022-11-10T15:05:05.939Z,3.33
2022-11-10T15:07:56.768Z,3.25
2022-11-10T15:10:48.144Z,3.63
2022-11-10T15:13:37.248Z,3.42
2022-11-10T15:16:38.694Z,3.47
2022-11-10T15:19:30.135Z,3.15
2022-11-10T15:22:19.834Z,4.30
2022-11-10T15:25:18.863Z,3.13
2022-11-10T15:28:14.206Z,2.85
2022-11-10T15:31:09.498Z,3.20
2022-11-10T15:34:00.885Z,2.83
2022-11-10T15:36:46.091Z,2.97
2022-11-10T15:39:32.471Z,2.63
2022-11-10T15:42:21.390Z,3.38
2022-11-10T15:45:07.164Z,3.22
2022-11-10T15:47:52.513Z,3.40
2022-11-10T15:50:37.491Z,2.85
2022-11-10T15:53:38.479Z,2.65
2022-11-10T15:56:24.854Z,2.90
2022-11-10T16:01:56.665Z,2.70
2022-11-10T16:04:42.214Z,3.55
2022-11-10T16:07:27.528Z,2.65
2022-11-10T16:10:13.028Z,2.50
2022-11-10T16:12:58.201Z,2.85
2022-11-10T16:15:45.313Z,2.35
2022-11-10T16:18:31.035Z,2.38
2022-11-10T16:21:22.545Z,2.20
2022-11-10T16:24:08.018Z,2.38
2022-11-10T16:26:53.157Z,2.67
2022-11-10T16:29:39.051Z,2.55
2022-11-10T16:32:24.427Z,2.35
2022-11-10T16:35:14.150Z,2.53
2022-11-10T16:37:59.118Z,2.70
2022-11-10T16:40:45.169Z,2.42
2022-11-10T16:43:31.408Z,2.22
2022-11-10T16:46:21.341Z,2.45
2022-11-10T16:49:16.165Z,2.40
2022-11-10T16:52:13.830Z,2.17
2022-11-10T16:54:58.747Z,2.50
2022-11-10T16:57:43.946Z,2.38
2022-11-10T17:00:29.218Z,2.22
2022-11-10T17:03:28.751Z,2.22
2022-11-10T17:06:15.814Z,2.17
2022-11-10T17:09:26.676Z,2.78
2022-11-10T17:12:13.451Z,2.53
2022-11-10T17:14:58.664Z,2.50
2022-11-10T17:17:46.410Z,2.30
2022-11-10T17:20:39.797Z,2.30
2022-11-10T17:23:26.104Z,2.50
2022-11-10T17:26:14.184Z,2.58
2022-11-10T17:28:59.435Z,2.30
2022-11-10T17:31:45.241Z,2.13
2022-11-10T17:34:30.616Z,2.25
2022-11-10T17:37:16.127Z,2.75
2022-11-10T17:40:07.389Z,2.22
2022-11-10T17:42:52.976Z,2.33
2022-11-10T17:45:39.039Z,2.13
2022-11-10T17:48:24.061Z,2.47
2022-11-10T17:51:19.674Z,1.70
2022-11-10T17:54:05.968Z,2.28
2022-11-10T17:56:51.025Z,2.08
2022-11-10T17:59:36.141Z,2.45
2022-11-10T18:02:21.761Z,2.28
2022-11-10T18:05:07.029Z,2.78
2022-11-10T18:07:52.176Z,2.30
2022-11-10T18:10:42.083Z,2.40
2022-11-10T18:13:27.265Z,3.40
2022-11-10T18:16:14.381Z,1.90
2022-11-10T18:18:59.501Z,2.92
2022-11-10T18:21:44.698Z,2.50
2022-11-10T18:24:29.985Z,2.53
2022-11-10T18:27:15.393Z,2.72
2022-11-10T18:30:00.756Z,2.05
2022-11-10T18:32:45.695Z,2.45
2022-11-10T18:35:31.633Z,1.65
2022-11-10T18:38:16.891Z,2.40
2022-11-10T18:41:23.601Z,2.25
2022-11-10T18:44:08.949Z,2.72
2022-11-10T18:46:53.990Z,2.40
2022-11-10T18:49:39.336Z,2.50
2022-11-10T18:52:24.610Z,2.03
2022-11-10T18:55:10.522Z,2.47
2022-11-10T18:57:55.408Z,2.50
2022-11-10T19:00:40.767Z,2.03
2022-11-10T19:03:26.100Z,2.80
2022-11-10T19:06:12.959Z,2.10
2022-11-10T19:08:58.631Z,2.30
2022-11-10T19:11:44.379Z,2.72
2022-11-10T19:14:29.493Z,2.20
2022-11-10T19:17:14.781Z,2.08
2022-11-10T19:20:00.045Z,1.90
2022-11-10T19:22:45.475Z,2.30
2022-11-10T19:25:31.237Z,2.88
2022-11-10T19:28:16.564Z,2.37
2022-11-10T19:31:10.681Z,2.40
2022-11-10T19:33:57.889Z,2.10
2022-11-10T19:36:42.780Z,2.50
2022-11-10T19:39:28.062Z,2.60
2022-11-10T19:42:13.225Z,2.78
2022-11-10T19:44:59.246Z,2.35
2022-11-10T19:47:44.525Z,2.85
2022-11-10T19:50:29.779Z,2.25
2022-11-10T19:53:16.177Z,2.40
2022-11-10T19:56:06.371Z,2.10
2022-11-10T19:58:51.759Z,2.58
2022-11-10T20:01:37.611Z,1.85
2022-11-10T20:04:22.820Z,2.50
2022-11-10T20:07:26.663Z,2.25
2022-11-10T20:10:12.168Z,2.13
2022-11-10T20:12:57.554Z,2.25
2022-11-10T20:15:43.789Z,1.70
2022-11-10T20:18:29.040Z,2.35
2022-11-10T20:21:16.721Z,1.70
2022-11-10T20:24:01.823Z,1.95
2022-11-10T20:26:49.667Z,2.25
2022-11-10T20:29:34.936Z,1.65
2022-11-10T20:32:20.307Z,2.42
2022-11-10T20:35:05.868Z,1.67
2022-11-10T20:37:50.848Z,1.90
2022-11-10T20:40:44.412Z,2.03
2022-11-10T20:43:33.218Z,1.90
2022-11-10T20:46:52.828Z,1.80
2022-11-10T20:49:25.709Z,2.13
2022-11-10T20:52:10.957Z,1.83
2022-11-10T20:54:56.258Z,1.95
2022-11-10T20:57:41.495Z,2.10
2022-11-10T21:00:26.800Z,1.95
2022-11-10T21:03:12.010Z,2.00
2022-11-10T21:05:57.381Z,2.10
2022-11-10T21:08:42.945Z,1.98
2022-11-10T21:11:46.462Z,2.00
2022-11-10T21:14:31.978Z,1.75
2022-11-10T21:17:18.080Z,2.13
2022-11-10T21:20:03.971Z,2.10
2022-11-10T21:22:49.088Z,2.00
2022-11-10T21:25:34.377Z,1.70
2022-11-10T21:28:19.935Z,1.70
2022-11-10T21:31:05.648Z,1.85
2022-11-10T21:33:50.769Z,2.00
2022-11-10T21:36:35.968Z,1.55
2022-11-10T21:39:21.242Z,1.92
2022-11-10T21:42:06.541Z,1.98
2022-11-10T21:44:51.860Z,1.90
2022-11-10T21:47:37.049Z,2.20
2022-11-10T21:50:22.301Z,1.95
2022-11-10T21:53:08.475Z,1.90
2022-11-10T21:56:04.814Z,2.28
2022-11-10T21:58:49.834Z,2.20
2022-11-10T22:01:35.292Z,2.35
2022-11-10T22:04:20.509Z,2.33
2022-11-10T22:07:23.843Z,2.10
2022-11-10T22:10:28.965Z,2.22
2022-11-10T22:13:34.331Z,2.53
2022-11-10T22:16:41.942Z,2.35
2022-11-10T22:19:27.167Z,3.55
2022-11-10T22:22:14.367Z,3.28
2022-11-10T22:24:59.390Z,3.33
2022-11-10T22:27:44.723Z,2.80
2022-11-10T22:30:30.685Z,3.15
2022-11-10T22:33:28.035Z,3.33
2022-11-10T22:36:15.407Z,2.50
2022-11-10T22:39:03.586Z,2.33
2022-11-10T22:42:08.502Z,2.45
2022-11-10T22:44:53.597Z,2.67
2022-11-10T22:47:57.432Z,2.38
2022-11-10T22:50:42.703Z,2.67
2022-11-10T22:53:28.074Z,2.67
2022-11-10T22:56:13.444Z,2.53
2022-11-10T22:59:00.287Z,2.55
2022-11-10T23:01:45.959Z,2.53
2022-11-10T23:04:31.401Z,2.30
2022-11-10T23:07:16.714Z,2.53
2022-11-10T23:10:02.282Z,2.40
2022-11-10T23:12:47.397Z,2.63
2022-11-10T23:15:34.546Z,2.17
2022-11-10T23:18:20.964Z,2.13
2022-11-10T23:21:09.435Z,2.65
2022-11-10T23:23:55.068Z,2.42
2022-11-10T23:26:40.261Z,2.33
2022-11-10T23:29:25.455Z,2.83
2022-11-10T23:32:10.797Z,2.03
2022-11-10T23:34:56.013Z,2.40
2022-11-10T23:37:41.239Z,2.20
2022-11-10T23:40:26.541Z,2.38
2022-11-10T23:43:11.747Z,2.40
2022-11-10T23:46:12.638Z,2.78
2022-11-10T23:48:57.952Z,2.17
2022-11-10T23:51:43.337Z,2.33
2022-11-10T23:54:28.705Z,2.60
2022-11-10T23:57:13.885Z,2.22
2022-11-10T23:59:59.085Z,2.55
